»·PEaware :: AWE130 KONT-KPHX

AWE130 :: KONT-KPHX

FLIGHT INFORMATION

Flight Status: Arrived
Operator:
US Airways
More flights by this operator :: More flights under this callsign
Pilot: Dave P. (45)
Aircraft: BOEING 737-600
(B736)
More flights by this aircraft type
Origin: KONT Ontario Intl
United States
Destination: KPHX Phoenix Sky Harbor Intl
United States
More flights between these airports :: More routes between these airports
Route: RAJEE2 MTBAL CNERY BLH HYDRR1
File this flight plan on PilotEdge
Remarks: PBN / A1B1C1D1S1S2 DOF / 170929 REG / N736PM EET / KZAB0028 OPR / AWE RMK / TCAS SIMBRIEF
Altitude:
(Current/Filed)
33,000ft
Speed:
(Current/Filed)
458kts
Departed: 28-Sep-17 06:49 PM
Arrived: 28-Sep-17 07:44 PM
Distance/Time
Traveled:
282nm/0:55
Distance/Time
To Go:
Arrived

Flight Plot

Page will automatically refresh every two minutes.

Flight plan parsing failed; only flown route is shown


Map Options




Map Legend


Flown Route
Filed Route
Departure Airport
Arrival Airport
Navaid (VOR, NDB)
Fix

Horizontal Profiles

Position Reports

Time Latitude Longitude Heading Altitude Ground
Speed
28-Sep-17 18:26 34.059780 -117.585927 359 951ft 0kts
28-Sep-17 18:27 34.059780 -117.585927 359 951ft 0kts
28-Sep-17 18:28 34.059780 -117.585927 359 951ft 0kts
28-Sep-17 18:29 34.059780 -117.585927 359 951ft 0kts
28-Sep-17 18:30 34.059780 -117.585927 359 951ft 0kts
28-Sep-17 18:31 34.059780 -117.585927 359 952ft 0kts
28-Sep-17 18:32 34.059780 -117.585927 359 951ft 0kts
28-Sep-17 18:33 34.059780 -117.585927 359 951ft 0kts
28-Sep-17 18:34 34.059780 -117.585927 359 951ft 0kts
28-Sep-17 18:35 34.059780 -117.585927 359 951ft 0kts
28-Sep-17 18:36 34.059780 -117.585927 359 951ft 0kts
28-Sep-17 18:37 34.059780 -117.585927 359 951ft 0kts
28-Sep-17 18:38 34.059780 -117.585927 359 951ft 0kts
28-Sep-17 18:39 34.059780 -117.585927 359 951ft 0kts
28-Sep-17 18:40 34.059780 -117.585927 359 951ft 0kts
28-Sep-17 18:41 34.059780 -117.585927 359 951ft 0kts
28-Sep-17 18:42 34.059780 -117.585927 359 951ft 0kts
28-Sep-17 18:43 34.059780 -117.585927 359 951ft 0kts
28-Sep-17 18:44 34.059780 -117.585927 359 951ft 0kts
28-Sep-17 18:45 34.059780 -117.585927 359 951ft 0kts
28-Sep-17 18:46 34.059526 -117.585926 359 951ft 2kts
28-Sep-17 18:47 34.059074 -117.585923 359 951ft 0kts
28-Sep-17 18:48 34.059074 -117.585923 359 951ft 0kts
28-Sep-17 18:49 34.059134 -117.585875 51 951ft 3kts
28-Sep-17 18:50 34.058310 -117.582671 180 951ft 10kts
28-Sep-17 18:51 34.057721 -117.582675 180 951ft 0kts
28-Sep-17 18:52 34.056753 -117.583188 268 951ft 5kts
28-Sep-17 18:53 34.056798 -117.611757 269 1534ft 145kts
28-Sep-17 18:54 34.021984 -117.618020 147 3485ft 204kts
28-Sep-17 18:55 33.965893 -117.570420 145 5292ft 279kts
28-Sep-17 18:56 33.900712 -117.515216 144 8818ft 294kts
28-Sep-17 18:57 33.830767 -117.456553 143 11697ft 333kts
28-Sep-17 18:58 33.748697 -117.387768 143 13834ft 374kts
28-Sep-17 18:59 33.702967 -117.281599 96 14028ft 370kts
28-Sep-17 19:00 33.691295 -117.155074 94 16942ft 391kts
28-Sep-17 19:01 33.679011 -117.021979 94 19646ft 411kts
28-Sep-17 19:02 33.665397 -116.882930 94 22125ft 429kts
28-Sep-17 19:03 33.651044 -116.737785 94 24316ft 445kts
28-Sep-17 19:04 33.636440 -116.587922 95 26324ft 460kts
28-Sep-17 19:05 33.620836 -116.433505 95 28120ft 474kts
28-Sep-17 19:06 33.608408 -116.273715 90 29704ft 485kts
28-Sep-17 19:07 33.605215 -116.112717 91 31761ft 483kts
28-Sep-17 19:08 33.605469 -115.951894 86 32836ft 485kts
28-Sep-17 19:09 33.611493 -115.790990 87 32854ft 481kts
28-Sep-17 19:10 33.616298 -115.630726 87 32859ft 481kts
28-Sep-17 19:11 33.615778 -115.469919 92 32867ft 481kts
28-Sep-17 19:12 33.610999 -115.309553 91 32877ft 482kts
28-Sep-17 19:13 33.606666 -115.148939 91 32885ft 482kts
28-Sep-17 19:14 33.602732 -114.987658 92 32893ft 483kts
28-Sep-17 19:15 33.598018 -114.826668 92 32898ft 484kts
28-Sep-17 19:16 33.578371 -114.667625 104 32899ft 484kts
28-Sep-17 19:17 33.547125 -114.510309 104 32829ft 483kts
28-Sep-17 19:18 33.516770 -114.354071 103 29468ft 484kts
28-Sep-17 19:19 33.486141 -114.199274 103 26578ft 470kts
28-Sep-17 19:20 33.456519 -114.051295 104 24896ft 435kts
28-Sep-17 19:21 33.429057 -113.913366 104 23630ft 426kts
28-Sep-17 19:22 33.401585 -113.776658 104 22504ft 417kts
28-Sep-17 19:23 33.374454 -113.642665 104 21406ft 409kts
28-Sep-17 19:24 33.347726 -113.511981 104 20335ft 401kts
28-Sep-17 19:25 33.323583 -113.383171 101 19282ft 394kts
28-Sep-17 19:26 33.301811 -113.255821 102 18246ft 386kts
28-Sep-17 19:27 33.283048 -113.130608 100 17298ft 380kts
28-Sep-17 19:28 33.275220 -113.010010 87 15977ft 347kts
28-Sep-17 19:29 33.278660 -112.897032 88 14234ft 334kts
28-Sep-17 19:30 33.282768 -112.788097 84 13196ft 308kts
28-Sep-17 19:31 33.292940 -112.688385 83 11205ft 298kts
28-Sep-17 19:32 33.302364 -112.590315 84 11008ft 299kts
28-Sep-17 19:33 33.311463 -112.491554 84 11001ft 299kts
28-Sep-17 19:34 33.320485 -112.392362 84 10996ft 299kts
28-Sep-17 19:35 33.329623 -112.293295 84 10580ft 301kts
28-Sep-17 19:36 33.338450 -112.195532 84 9807ft 288kts
28-Sep-17 19:37 33.346482 -112.105630 84 9085ft 254kts
28-Sep-17 19:38 33.347048 -112.022925 91 8090ft 247kts
28-Sep-17 19:39 33.346093 -111.941419 90 7000ft 242kts
28-Sep-17 19:40 33.346601 -111.860982 90 5639ft 239kts
28-Sep-17 19:41 33.346828 -111.782518 90 4491ft 227kts
28-Sep-17 19:42 33.380165 -111.744910 352 4056ft 201kts
28-Sep-17 19:43 33.422143 -111.783961 300 4037ft 206kts
28-Sep-17 19:44 33.441025 -111.843576 270 3564ft 183kts
28-Sep-17 19:45 33.440742 -111.903056 270 2577ft 166kts
28-Sep-17 19:46 33.440786 -111.951474 269 1811ft 133kts
28-Sep-17 19:47 33.440824 -111.995272 269 1144ft 128kts
28-Sep-17 19:48 33.440156 -112.007323 181 1143ft 1kts
28-Sep-17 19:49 33.439223 -112.007346 175 1143ft 4kts
28-Sep-17 19:50 33.438972 -112.001914 90 1143ft 19kts
28-Sep-17 19:51 33.438973 -111.995571 91 1143ft 13kts
28-Sep-17 19:52 33.437918 -111.994845 118 1143ft 0kts
28-Sep-17 19:53 33.437918 -111.994845 118 1143ft 0kts
28-Sep-17 19:54 33.437918 -111.994845 118 1143ft 0kts
28-Sep-17 19:55 33.437918 -111.994845 118 1143ft 0kts

Navigation Log

Ident Type
Flight plan parsing failed, navigation log unavailable